createdAt,value
2022-09-15T00:00:00.231Z,95173.50
2022-09-15T00:02:26.597Z,95176.41
2022-09-15T00:04:53.348Z,95172.91
2022-09-15T00:07:20.559Z,95172.66
2022-09-15T00:09:47.246Z,95164.66
2022-09-15T00:12:13.675Z,95161.69
2022-09-15T00:14:40.030Z,95148.81
2022-09-15T00:17:06.984Z,95153.66
2022-09-15T00:19:33.324Z,95160.56
2022-09-15T00:21:59.623Z,95143.09
2022-09-15T00:24:26.398Z,95150.59
2022-09-15T00:26:52.740Z,95166.69
2022-09-15T00:29:19.443Z,95160.53
2022-09-15T00:31:45.791Z,95164.03
2022-09-15T00:34:13.211Z,95167.00
2022-09-15T00:36:40.775Z,95170.75
2022-09-15T00:39:07.186Z,95168.88
2022-09-15T00:41:33.542Z,95169.69
2022-09-15T00:44:06.597Z,95168.09
2022-09-15T00:46:41.001Z,95171.75
2022-09-15T00:49:11.009Z,95177.31
2022-09-15T00:52:07.166Z,95173.28
2022-09-15T00:54:46.688Z,95180.31
2022-09-15T00:57:19.719Z,95169.81
2022-09-15T00:59:48.327Z,95180.31
2022-09-15T01:02:28.080Z,95184.63
2022-09-15T01:04:58.582Z,95176.50
2022-09-15T01:07:46.437Z,95180.00
2022-09-15T01:10:21.891Z,95167.97
2022-09-15T01:12:48.635Z,95173.34
2022-09-15T01:15:16.167Z,95170.66
2022-09-15T01:17:56.240Z,95175.25
2022-09-15T01:20:41.207Z,95173.41
2022-09-15T01:23:29.839Z,95173.94
2022-09-15T01:26:10.909Z,95164.31
2022-09-15T01:29:02.503Z,95165.16
2022-09-15T01:32:02.181Z,95161.16
2022-09-15T01:34:39.167Z,95157.13
2022-09-15T01:37:15.167Z,95156.91
2022-09-15T01:39:46.178Z,95153.13
2022-09-15T01:42:15.415Z,95148.84
2022-09-15T01:44:56.979Z,95135.19
2022-09-15T01:47:27.298Z,95141.88
2022-09-15T01:50:03.127Z,95137.84
2022-09-15T01:52:31.532Z,95139.69
2022-09-15T01:55:05.116Z,95134.88
2022-09-15T01:57:33.162Z,95139.19
2022-09-15T02:00:00.492Z,95139.47
2022-09-15T02:02:34.681Z,95139.72
2022-09-15T02:05:20.109Z,95132.78
2022-09-15T02:07:52.351Z,95141.38
2022-09-15T02:10:58.687Z,95133.63
2022-09-15T02:13:33.063Z,95134.97
2022-09-15T02:16:00.405Z,95127.50
2022-09-15T02:18:45.553Z,95132.34
2022-09-15T02:21:23.262Z,95125.13
2022-09-15T02:23:55.296Z,95119.50
2022-09-15T02:26:26.900Z,95124.31
2022-09-15T02:28:57.552Z,95122.97
2022-09-15T02:31:25.835Z,95132.63
2022-09-15T02:33:59.930Z,95133.44
2022-09-15T02:36:29.098Z,95132.13
2022-09-15T02:39:00.667Z,95143.63
2022-09-15T02:41:27.224Z,95127.03
2022-09-15T02:43:54.082Z,95131.81
2022-09-15T02:46:22.974Z,95131.84
2022-09-15T02:48:50.143Z,95124.34
2022-09-15T02:51:18.353Z,95130.25
2022-09-15T02:53:46.926Z,95126.50
2022-09-15T02:56:13.709Z,95125.44
2022-09-15T02:58:40.042Z,95131.31
2022-09-15T03:01:08.567Z,95130.78
2022-09-15T03:03:35.023Z,95127.06
2022-09-15T03:06:17.108Z,95137.75
2022-09-15T03:08:45.134Z,95139.38
2022-09-15T03:11:12.075Z,95136.94
2022-09-15T03:13:39.143Z,95141.78
2022-09-15T03:16:13.927Z,95134.03
2022-09-15T03:18:42.035Z,95136.69
2022-09-15T03:21:12.190Z,95144.16
2022-09-15T03:23:39.670Z,95131.34
2022-09-15T03:26:08.139Z,95130.78
2022-09-15T03:28:35.282Z,95128.13
2022-09-15T03:31:02.451Z,95140.97
2022-09-15T03:33:30.303Z,95133.75
2022-09-15T03:35:57.069Z,95132.38
2022-09-15T03:38:23.495Z,95120.63
2022-09-15T03:40:58.516Z,95129.75
2022-09-15T03:43:25.560Z,95122.22
2022-09-15T03:45:51.938Z,95136.69
2022-09-15T03:48:19.171Z,95132.38
2022-09-15T03:50:45.928Z,95134.00
2022-09-15T03:53:12.632Z,95132.38
2022-09-15T03:55:39.292Z,95143.66
2022-09-15T03:58:05.603Z,95137.19
2022-09-15T04:00:32.177Z,95135.88
2022-09-15T04:02:58.883Z,95137.72
2022-09-15T04:05:25.359Z,95128.66
2022-09-15T04:07:51.665Z,95130.25
2022-09-15T04:10:18.933Z,95128.13
2022-09-15T04:12:46.072Z,95137.19
2022-09-15T04:15:12.378Z,95136.16
2022-09-15T04:17:39.431Z,95137.19
2022-09-15T04:20:06.239Z,95130.78
2022-09-15T04:22:32.566Z,95126.50
2022-09-15T04:24:59.225Z,95127.59
2022-09-15T04:27:25.644Z,95132.38
2022-09-15T04:29:52.479Z,95129.97
2022-09-15T04:32:20.949Z,95128.66
2022-09-15T04:34:47.377Z,95127.31
2022-09-15T04:37:13.743Z,95121.16
2022-09-15T04:39:40.894Z,95124.34
2022-09-15T04:42:07.781Z,95115.78
2022-09-15T04:44:34.120Z,95110.19
2022-09-15T04:47:01.045Z,95110.47
2022-09-15T04:49:28.800Z,95111.81
2022-09-15T04:51:55.226Z,95115.81
2022-09-15T04:54:21.920Z,95113.69
2022-09-15T04:56:48.827Z,95113.16
2022-09-15T04:59:17.507Z,95113.16
2022-09-15T05:01:45.763Z,95123.03
2022-09-15T05:04:12.473Z,95118.75
2022-09-15T05:06:39.067Z,95117.94
2022-09-15T05:09:10.467Z,95109.38
2022-09-15T05:11:37.781Z,95117.16
2022-09-15T05:14:04.118Z,95117.41
2022-09-15T05:16:31.898Z,95112.59
2022-09-15T05:19:00.594Z,95126.53
2022-09-15T05:21:27.643Z,95132.66
2022-09-15T05:23:54.568Z,95117.94
2022-09-15T05:26:23.960Z,95124.91
2022-09-15T05:28:50.295Z,95124.09
2022-09-15T05:31:23.088Z,95119.56
2022-09-15T05:33:50.498Z,95124.63
2022-09-15T05:36:18.500Z,95132.38
2022-09-15T05:38:45.397Z,95132.94
2022-09-15T05:41:14.054Z,95133.47
2022-09-15T05:43:40.369Z,95122.75
2022-09-15T05:46:07.878Z,95140.97
2022-09-15T05:48:34.767Z,95133.19
2022-09-15T05:51:01.656Z,95134.53
2022-09-15T05:53:28.958Z,95141.75
2022-09-15T05:56:00.258Z,95138.78
2022-09-15T05:58:27.371Z,95140.97
2022-09-15T06:00:54.475Z,95150.06
2022-09-15T06:03:24.463Z,95145.75
2022-09-15T06:06:00.107Z,95148.72
2022-09-15T06:08:34.163Z,95136.94
2022-09-15T06:11:02.791Z,95138.25
2022-09-15T06:13:29.293Z,95135.59
2022-09-15T06:16:01.484Z,95130.22
2022-09-15T06:18:28.076Z,95137.19
2022-09-15T06:20:54.382Z,95137.72
2022-09-15T06:23:21.283Z,95144.41
2022-09-15T06:25:48.059Z,95151.63
2022-09-15T06:28:14.359Z,95151.63
2022-09-15T06:30:41.149Z,95153.78
2022-09-15T06:33:07.459Z,95157.50
2022-09-15T06:35:33.786Z,95163.94
2022-09-15T06:38:00.496Z,95158.03
2022-09-15T06:40:26.928Z,95165.00
2022-09-15T06:42:57.033Z,95174.34
2022-09-15T06:45:23.780Z,95166.84
2022-09-15T06:48:13.442Z,95172.47
2022-09-15T06:50:39.084Z,95172.47
2022-09-15T06:53:05.471Z,95162.84
2022-09-15T06:55:31.788Z,95173.06
2022-09-15T06:57:58.464Z,95159.66
2022-09-15T07:00:25.599Z,95150.34
2022-09-15T07:02:51.975Z,95142.56
2022-09-15T07:05:18.947Z,95147.38
2022-09-15T07:07:45.290Z,95154.34
2022-09-15T07:10:11.692Z,95160.22
2022-09-15T07:12:38.416Z,95157.81
2022-09-15T07:15:05.168Z,95163.44
2022-09-15T07:17:31.468Z,95166.34
2022-09-15T07:19:58.044Z,95174.63
2022-09-15T07:22:24.793Z,95177.88
2022-09-15T07:24:51.101Z,95185.63
2022-09-15T07:27:18.070Z,95187.53
2022-09-15T07:29:44.704Z,95198.78
2022-09-15T07:32:11.010Z,95188.59
2022-09-15T07:34:37.328Z,95192.34
2022-09-15T07:37:04.215Z,95200.59
2022-09-15T07:39:32.511Z,95205.44
2022-09-15T07:41:58.858Z,95206.75
2022-09-15T07:44:25.279Z,95217.50
2022-09-15T07:46:51.989Z,95212.09
2022-09-15T07:49:18.289Z,95210.78
2022-09-15T07:51:44.595Z,95207.81
2022-09-15T07:54:13.275Z,95214.22
2022-09-15T07:56:39.610Z,95220.13
2022-09-15T07:59:06.010Z,95226.06
2022-09-15T08:01:33.118Z,95220.69
2022-09-15T08:03:59.531Z,95225.47
2022-09-15T08:06:26.763Z,95223.38
2022-09-15T08:08:59.227Z,95225.75
2022-09-15T08:11:26.991Z,95232.94
2022-09-15T08:13:53.747Z,95231.06
2022-09-15T08:16:22.951Z,95227.03
2022-09-15T08:18:49.960Z,95238.81
2022-09-15T08:21:20.566Z,95235.81
2022-09-15T08:23:51.958Z,95231.59
2022-09-15T08:26:19.394Z,95234.03
2022-09-15T08:28:45.913Z,95227.03
2022-09-15T08:31:14.228Z,95236.63
2022-09-15T08:33:45.466Z,95231.28
2022-09-15T08:36:13.140Z,95231.75
2022-09-15T08:38:40.739Z,95238.72
2022-09-15T08:41:37.884Z,95241.69
2022-09-15T08:44:22.839Z,95245.69
2022-09-15T08:46:56.519Z,95236.56
2022-09-15T08:49:51.214Z,95244.31
2022-09-15T08:52:35.059Z,95240.56
2022-09-15T08:55:10.250Z,95244.56
2022-09-15T08:57:36.763Z,95247.25
2022-09-15T09:00:03.801Z,95253.19
2022-09-15T09:02:48.597Z,95246.75
2022-09-15T09:05:34.282Z,95236.75
2022-09-15T09:08:11.255Z,95244.34
2022-09-15T09:11:11.030Z,95247.72
2022-09-15T09:13:58.010Z,95249.22
2022-09-15T09:16:47.243Z,95248.47
2022-09-15T09:19:17.089Z,95246.34
2022-09-15T09:22:09.504Z,95246.31
2022-09-15T09:24:43.040Z,95244.28
2022-09-15T09:27:19.852Z,95243.81
2022-09-15T09:29:52.274Z,95242.03
2022-09-15T09:32:27.342Z,95246.72
2022-09-15T09:35:05.731Z,95238.94
2022-09-15T09:37:33.278Z,95244.69
2022-09-15T09:40:00.421Z,95245.97
2022-09-15T09:42:34.741Z,95248.47
2022-09-15T09:45:01.010Z,95246.16
2022-09-15T09:47:29.648Z,95250.44
2022-09-15T09:49:56.130Z,95245.56
2022-09-15T09:52:39.297Z,95245.56
2022-09-15T09:55:31.676Z,95233.28
2022-09-15T09:58:14.431Z,95238.13
2022-09-15T10:00:41.963Z,95233.22
2022-09-15T10:03:23.021Z,95232.44
2022-09-15T10:06:08.054Z,95229.38
2022-09-15T10:08:36.329Z,95226.81
2022-09-15T10:11:08.578Z,95220.72
2022-09-15T10:13:49.598Z,95222.66
2022-09-15T10:16:19.239Z,95217.66
2022-09-15T10:18:48.990Z,95219.34
2022-09-15T10:21:23.924Z,95224.00
2022-09-15T10:23:50.239Z,95221.31
2022-09-15T10:26:16.547Z,95217.63
2022-09-15T10:28:44.369Z,95219.19
2022-09-15T10:31:16.187Z,95229.13
2022-09-15T10:33:47.774Z,95226.22
2022-09-15T10:36:17.567Z,95236.16
2022-09-15T10:38:49.687Z,95238.69
2022-09-15T10:41:25.739Z,95221.81
2022-09-15T10:44:33.982Z,95221.53
2022-09-15T10:47:12.915Z,95222.94
2022-09-15T10:49:59.960Z,95216.44
2022-09-15T10:52:41.220Z,95206.88
2022-09-15T10:55:52.221Z,95211.63
2022-09-15T10:58:25.360Z,95203.94
2022-09-15T11:01:11.208Z,95198.00
2022-09-15T11:03:49.273Z,95208.00
2022-09-15T11:06:25.022Z,95205.22
2022-09-15T11:09:15.240Z,95206.13
2022-09-15T11:12:04.664Z,95200.31
2022-09-15T11:15:11.797Z,95191.78
2022-09-15T11:17:54.147Z,95193.09
2022-09-15T11:20:33.333Z,95200.44
2022-09-15T11:23:22.571Z,95195.13
2022-09-15T11:25:55.244Z,95189.97
2022-09-15T11:28:41.646Z,95191.31
2022-09-15T11:31:16.775Z,95189.94
2022-09-15T11:33:52.400Z,95196.09
2022-09-15T11:36:30.327Z,95190.22
2022-09-15T11:39:27.952Z,95185.16
2022-09-15T11:42:17.542Z,95192.56
2022-09-15T11:44:46.896Z,95183.13
2022-09-15T11:47:31.170Z,95187.00
2022-09-15T11:50:17.969Z,95181.22
2022-09-15T11:52:57.668Z,95180.84
2022-09-15T11:55:29.975Z,95185.09
2022-09-15T11:58:35.092Z,95178.41
2022-09-15T12:01:10.507Z,95177.22
2022-09-15T12:04:00.035Z,95175.16
2022-09-15T12:06:35.997Z,95178.50
2022-09-15T12:09:06.006Z,95178.59
2022-09-15T12:11:40.464Z,95175.09
2022-09-15T12:14:10.898Z,95174.22
2022-09-15T12:16:37.528Z,95173.22
2022-09-15T12:19:33.014Z,95181.03
2022-09-15T12:22:29.588Z,95169.13
2022-09-15T12:25:15.397Z,95174.22
2022-09-15T12:27:41.738Z,95167.53
2022-09-15T12:30:38.286Z,95195.59
2022-09-15T12:33:42.658Z,95195.38
2022-09-15T12:39:46.094Z,95207.66
2022-09-15T12:42:20.666Z,95210.13
2022-09-15T12:44:52.683Z,95208.84
2022-09-15T12:47:39.133Z,95212.03
2022-09-15T12:50:14.891Z,95214.06
2022-09-15T12:52:45.377Z,95211.00
2022-09-15T12:55:27.966Z,95215.09
2022-09-15T12:58:18.208Z,95229.91
2022-09-15T13:01:07.211Z,95228.09
2022-09-15T13:03:38.179Z,95236.22
2022-09-15T13:06:10.905Z,95235.44
2022-09-15T13:08:37.252Z,95227.31
2022-09-15T13:11:08.512Z,95243.38
2022-09-15T13:13:43.906Z,95242.97
2022-09-15T13:16:19.438Z,95244.28
2022-09-15T13:18:47.441Z,95257.94
2022-09-15T13:21:19.216Z,95249.66
2022-09-15T13:23:48.536Z,95261.75
2022-09-15T13:26:22.455Z,95265.53
2022-09-15T13:28:51.647Z,95264.94
2022-09-15T13:31:37.563Z,95260.16
2022-09-15T13:40:14.738Z,95292.88
2022-09-15T13:43:00.559Z,95304.19
2022-09-15T13:45:50.606Z,95309.59
2022-09-15T13:48:39.642Z,95308.56
2022-09-15T13:51:15.515Z,95311.78
2022-09-15T13:53:51.031Z,95312.59
2022-09-15T13:56:27.999Z,95311.78
2022-09-15T13:59:07.258Z,95312.88
2022-09-15T14:01:40.693Z,95323.00
2022-09-15T14:04:24.263Z,95324.06
2022-09-15T14:06:58.539Z,95327.81
2022-09-15T14:09:33.995Z,95328.53
2022-09-15T14:12:09.407Z,95339.38
2022-09-15T14:14:53.564Z,95334.44
2022-09-15T14:17:25.204Z,95342.59
2022-09-15T14:19:54.227Z,95356.00
2022-09-15T14:22:20.631Z,95358.63
2022-09-15T14:24:47.746Z,95358.66
2022-09-15T14:27:22.259Z,95353.91
2022-09-15T14:29:54.313Z,95349.56
2022-09-15T14:32:21.616Z,95359.44
2022-09-15T14:37:24.252Z,95348.72
2022-09-15T14:39:57.035Z,95356.28
2022-09-15T14:42:32.422Z,95356.97
2022-09-15T14:48:00.422Z,95362.66
2022-09-15T14:50:32.466Z,95365.59
2022-09-15T14:53:07.524Z,95371.03
2022-09-15T14:55:54.526Z,95372.47
2022-09-15T14:58:32.890Z,95378.59
2022-09-15T15:01:42.739Z,95377.94
2022-09-15T15:04:18.140Z,95379.66
2022-09-15T15:07:10.534Z,95382.66
2022-09-15T15:09:47.837Z,95380.00
2022-09-15T15:12:33.504Z,95383.66
2022-09-15T15:15:00.455Z,95386.34
2022-09-15T15:17:44.079Z,95387.53
2022-09-15T15:20:10.612Z,95396.81
2022-09-15T15:22:38.440Z,95394.75
2022-09-15T15:25:29.936Z,95412.22
2022-09-15T15:28:00.226Z,95406.50
2022-09-15T15:30:30.444Z,95404.94
2022-09-15T15:32:59.591Z,95405.44
2022-09-15T15:35:26.446Z,95407.31
2022-09-15T15:38:16.119Z,95411.38
2022-09-15T15:40:43.748Z,95412.66
2022-09-15T15:43:24.683Z,95406.81
2022-09-15T15:46:00.958Z,95410.34
2022-09-15T15:48:32.848Z,95420.56
2022-09-15T15:51:04.481Z,95421.53
2022-09-15T15:53:31.186Z,95422.28
2022-09-15T15:55:59.634Z,95420.84
2022-09-15T15:58:26.668Z,95424.06
2022-09-15T16:00:56.469Z,95415.78
2022-09-15T16:03:24.626Z,95421.84
2022-09-15T16:05:53.988Z,95421.84
2022-09-15T16:08:26.784Z,95417.28
2022-09-15T16:10:54.604Z,95425.03
2022-09-15T16:13:22.307Z,95429.28
2022-09-15T16:15:49.183Z,95435.75
2022-09-15T16:18:15.726Z,95440.88
2022-09-15T16:20:42.506Z,95435.66
2022-09-15T16:23:15.332Z,95438.38
2022-09-15T16:25:59.284Z,95445.28
2022-09-15T16:28:25.930Z,95452.97
2022-09-15T16:30:52.299Z,95445.59
2022-09-15T16:33:19.260Z,95448.19
2022-09-15T16:35:53.171Z,95452.41
2022-09-15T16:38:20.076Z,95453.97
2022-09-15T16:40:51.492Z,95446.41
2022-09-15T16:43:21.389Z,95451.78
2022-09-15T16:45:49.075Z,95446.13
2022-09-15T16:48:15.547Z,95442.28
2022-09-15T16:51:01.654Z,95434.34
2022-09-15T16:53:31.387Z,95446.13
2022-09-15T16:55:57.828Z,95444.03
2022-09-15T16:58:24.180Z,95447.63
2022-09-15T17:00:52.949Z,95452.19
2022-09-15T17:03:24.279Z,95463.56
2022-09-15T17:05:55.770Z,95467.28
2022-09-15T17:08:29.504Z,95464.56
2022-09-15T17:10:57.668Z,95466.06
2022-09-15T17:13:29.305Z,95473.09
2022-09-15T17:15:57.183Z,95464.06
2022-09-15T17:18:23.944Z,95476.72
2022-09-15T17:20:50.715Z,95482.47
2022-09-15T17:23:27.905Z,95487.88
2022-09-15T17:26:00.192Z,95487.56
2022-09-15T17:28:29.221Z,95487.75
2022-09-15T17:31:04.783Z,95496.28
2022-09-15T17:33:31.967Z,95492.56
2022-09-15T17:35:59.581Z,95490.94
2022-09-15T17:38:26.511Z,95500.47
2022-09-15T17:40:55.614Z,95503.78
2022-09-15T17:43:24.449Z,95501.22
2022-09-15T17:45:51.118Z,95502.91
2022-09-15T17:48:18.396Z,95501.84
2022-09-15T17:50:45.268Z,95502.63
2022-09-15T17:53:32.055Z,95511.53
2022-09-15T17:55:58.524Z,95500.97
2022-09-15T17:58:26.604Z,95505.53
2022-09-15T18:00:54.473Z,95504.78
2022-09-15T18:03:23.198Z,95499.47
2022-09-15T18:05:50.863Z,95496.59
2022-09-15T18:08:18.108Z,95494.53
2022-09-15T18:10:44.944Z,95508.19
2022-09-15T18:13:16.864Z,95507.16
2022-09-15T18:15:44.424Z,95502.97
2022-09-15T18:18:16.489Z,95517.78
2022-09-15T18:20:43.292Z,95509.75
2022-09-15T18:23:15.204Z,95522.03
2022-09-15T18:25:42.048Z,95525.59
2022-09-15T18:28:08.926Z,95522.53
2022-09-15T18:30:41.125Z,95527.53
2022-09-15T18:33:12.551Z,95522.84
2022-09-15T18:35:40.962Z,95527.06
2022-09-15T18:38:08.260Z,95522.75
2022-09-15T18:40:34.699Z,95532.72
2022-09-15T18:43:01.052Z,95538.97
2022-09-15T18:45:28.489Z,95538.53
2022-09-15T18:47:54.872Z,95540.84
2022-09-15T18:50:23.681Z,95542.63
2022-09-15T18:52:50.767Z,95554.25
2022-09-15T18:55:20.119Z,95546.75
2022-09-15T18:57:47.244Z,95552.00
2022-09-15T19:00:17.593Z,95557.06
2022-09-15T19:02:44.407Z,95558.53
2022-09-15T19:05:15.528Z,95566.06
2022-09-15T19:07:43.496Z,95565.63
2022-09-15T19:10:11.515Z,95562.41
2022-09-15T19:12:38.407Z,95565.63
2022-09-15T19:15:10.758Z,95565.41
2022-09-15T19:17:38.223Z,95555.13
2022-09-15T19:20:07.155Z,95562.16
2022-09-15T19:22:34.062Z,95558.19
2022-09-15T19:25:00.577Z,95559.66
2022-09-15T19:27:27.455Z,95562.38
2022-09-15T19:29:53.776Z,95559.47
2022-09-15T19:32:20.964Z,95566.44
2022-09-15T19:34:48.659Z,95559.47
2022-09-15T19:37:18.861Z,95558.19
2022-09-15T19:39:46.219Z,95558.69
2022-09-15T19:42:13.060Z,95565.53
2022-09-15T19:44:41.137Z,95567.53
2022-09-15T19:47:08.762Z,95569.75
2022-09-15T19:49:35.723Z,95565.91
2022-09-15T19:52:02.124Z,95564.56
2022-09-15T19:54:30.046Z,95577.59
2022-09-15T19:56:56.848Z,95564.88
2022-09-15T19:59:27.417Z,95566.84
2022-09-15T20:01:57.243Z,95570.88
2022-09-15T20:04:23.635Z,95570.88
2022-09-15T20:06:49.967Z,95562.69
2022-09-15T20:09:17.174Z,95567.72
2022-09-15T20:11:43.711Z,95562.22
2022-09-15T20:14:10.114Z,95571.59
2022-09-15T20:16:37.027Z,95567.91
2022-09-15T20:19:04.645Z,95562.56
2022-09-15T20:21:51.103Z,95558.38
2022-09-15T20:24:20.364Z,95570.16
2022-09-15T20:26:47.246Z,95566.78
2022-09-15T20:29:14.243Z,95564.63
2022-09-15T20:31:41.558Z,95558.41
2022-09-15T20:34:08.127Z,95565.16
2022-09-15T20:36:36.538Z,95561.50
2022-09-15T20:39:06.435Z,95568.13
2022-09-15T20:41:32.924Z,95576.25
2022-09-15T20:44:00.112Z,95577.41
2022-09-15T20:46:29.442Z,95573.72
2022-09-15T20:48:55.779Z,95579.31
2022-09-15T20:51:25.447Z,95573.63
2022-09-15T20:53:54.651Z,95579.75
2022-09-15T20:56:24.791Z,95584.16
2022-09-15T20:58:52.778Z,95580.59
2022-09-15T21:01:22.077Z,95590.44
2022-09-15T21:03:49.146Z,95596.16
2022-09-15T21:06:18.846Z,95596.47
2022-09-15T21:08:47.962Z,95591.63
2022-09-15T21:11:15.772Z,95593.69
2022-09-15T21:13:43.403Z,95591.84
2022-09-15T21:16:15.674Z,95592.91
2022-09-15T21:18:44.351Z,95587.94
2022-09-15T21:21:16.367Z,95592.69
2022-09-15T21:23:54.626Z,95592.44
2022-09-15T21:26:27.112Z,95590.47
2022-09-15T21:28:55.134Z,95591.41
2022-09-15T21:31:26.538Z,95589.56
2022-09-15T21:33:54.316Z,95583.53
2022-09-15T21:36:26.209Z,95582.16
2022-09-15T21:38:54.627Z,95581.09
2022-09-15T21:41:23.491Z,95587.78
2022-09-15T21:43:55.845Z,95589.38
2022-09-15T21:46:24.494Z,95589.97
2022-09-15T21:48:51.691Z,95588.81
2022-09-15T21:51:24.229Z,95597.94
2022-09-15T21:53:52.503Z,95607.09
2022-09-15T21:56:18.883Z,95604.31
2022-09-15T21:58:45.931Z,95602.44
2022-09-15T22:01:19.766Z,95604.50
2022-09-15T22:03:52.062Z,95598.50
2022-09-15T22:06:20.838Z,95601.78
2022-09-15T22:08:47.535Z,95591.28
2022-09-15T22:11:14.784Z,95593.31
2022-09-15T22:13:43.483Z,95592.34
2022-09-15T22:16:16.967Z,95601.09
2022-09-15T22:18:44.901Z,95610.41
2022-09-15T22:21:23.288Z,95613.56
2022-09-15T22:23:52.059Z,95608.41
2022-09-15T22:26:29.739Z,95607.72
2022-09-15T22:28:57.272Z,95610.47
2022-09-15T22:31:24.757Z,95610.66
2022-09-15T22:33:51.729Z,95613.31
2022-09-15T22:36:25.134Z,95614.81
2022-09-15T22:38:55.330Z,95619.97
2022-09-15T22:41:25.449Z,95615.69
2022-09-15T22:43:51.857Z,95608.69
2022-09-15T22:46:19.824Z,95614.13
2022-09-15T22:48:46.327Z,95600.88
2022-09-15T22:51:13.104Z,95603.38
2022-09-15T22:53:39.868Z,95598.31
2022-09-15T22:56:08.067Z,95598.75
2022-09-15T22:58:35.977Z,95599.88
2022-09-15T23:01:13.926Z,95597.88
2022-09-15T23:03:40.671Z,95593.84
2022-09-15T23:06:08.365Z,95600.81
2022-09-15T23:08:35.914Z,95593.09
2022-09-15T23:11:08.362Z,95591.53
2022-09-15T23:13:36.055Z,95597.75
2022-09-15T23:16:03.277Z,95586.75
2022-09-15T23:18:30.032Z,95582.94
2022-09-15T23:21:01.820Z,95586.00
2022-09-15T23:23:29.081Z,95584.00
2022-09-15T23:25:56.342Z,95589.13
2022-09-15T23:28:23.717Z,95584.25
2022-09-15T23:30:55.197Z,95585.91
2022-09-15T23:33:22.876Z,95574.72
2022-09-15T23:35:49.996Z,95582.31
2022-09-15T23:38:17.769Z,95580.03
2022-09-15T23:40:45.279Z,95581.25
2022-09-15T23:43:12.617Z,95581.00
2022-09-15T23:45:39.940Z,95572.66
2022-09-15T23:48:08.236Z,95572.66
2022-09-15T23:50:36.538Z,95572.31
2022-09-15T23:53:03.811Z,95570.31
2022-09-15T23:55:30.296Z,95563.03
2022-09-15T23:57:57.451Z,95577.94
